Time;durP1;ratioP1;P1;durP2;ratioP2;P2;SDS_P1;SDS_P2;PMS_P1;PMS_P2;Temp;Humidity;BMP_temperature;BMP_pressure;BME280_temperature;BME280_humidity;BME280_pressure;Samples;Min_cycle;Max_cycle;Signal;HPM_P1;HPM_P2
2022/07/31 00:00:43;;;;;;;14.10;11.00;;;;;;;;;;4260964;33;20100;-64
2022/07/31 00:03:10;;;;;;;15.23;10.98;;;;;;;;;;4260936;33;20125;-64
2022/07/31 00:34:31;;;;;;;16.58;10.32;;;;;;;;;;4306542;28;20211;-66
2022/07/31 00:36:57;;;;;;;14.57;10.20;;;;;;;;;;4231431;33;20529;-66
2022/07/31 00:39:23;;;;;;;15.48;9.98;;;;;;;;;;4232396;33;20128;-69
2022/07/31 00:41:49;;;;;;;17.52;10.55;;;;;;;;;;4231346;33;20125;-68
2022/07/31 00:44:16;;;;;;;15.68;9.88;;;;;;;;;;4232541;33;20124;-70
2022/07/31 00:46:41;;;;;;;20.85;9.80;;;;;;;;;;4232508;33;20120;-69
2022/07/31 00:49:08;;;;;;;14.38;9.52;;;;;;;;;;4232544;33;20099;-70
2022/07/31 00:51:35;;;;;;;16.87;10.45;;;;;;;;;;4230969;33;20113;-69
2022/07/31 00:54:01;;;;;;;16.10;11.23;;;;;;;;;;4232603;33;20485;-70
2022/07/31 00:56:27;;;;;;;15.18;9.77;;;;;;;;;;4232408;33;20102;-69
2022/07/31 00:58:56;;;;;;;13.95;10.75;;;;;;;;;;4232080;33;20449;-68
2022/07/31 01:01:22;;;;;;;13.88;9.45;;;;;;;;;;4232366;33;20112;-68
2022/07/31 01:03:49;;;;;;;17.08;11.05;;;;;;;;;;4232256;33;20136;-68
2022/07/31 01:06:15;;;;;;;16.40;10.90;;;;;;;;;;4232542;33;20148;-68
2022/07/31 01:08:41;;;;;;;17.20;11.23;;;;;;;;;;4232047;33;20477;-68
2022/07/31 01:11:15;;;;;;;15.73;10.65;;;;;;;;;;4230924;33;20533;-68
2022/07/31 01:13:40;;;;;;;13.62;10.32;;;;;;;;;;4230718;33;20176;-68
2022/07/31 01:16:08;;;;;;;14.23;9.85;;;;;;;;;;4232118;33;20128;-68
2022/07/31 01:18:37;;;;;;;20.55;10.98;;;;;;;;;;4218933;33;20196;-68
2022/07/31 01:21:07;;;;;;;15.88;10.48;;;;;;;;;;4219301;33;20094;-68
2022/07/31 01:23:53;;;;;;;16.30;10.63;;;;;;;;;;4230460;33;20123;-68
2022/07/31 01:26:42;;;;;;;12.43;9.63;;;;;;;;;;4232014;33;20541;-68
2022/07/31 01:29:33;;;;;;;13.32;10.52;;;;;;;;;;4218744;33;20122;-68
2022/07/31 01:32:35;;;;;;;13.95;10.00;;;;;;;;;;4219253;33;20118;-68
2022/07/31 01:35:05;;;;;;;21.30;9.23;;;;;;;;;;4201729;34;20289;-68
2022/07/31 01:37:36;;;;;;;17.00;9.98;;;;;;;;;;4202358;33;20492;-68
2022/07/31 01:40:09;;;;;;;11.57;9.55;;;;;;;;;;4217823;34;20140;-68
2022/07/31 01:42:36;;;;;;;11.73;8.70;;;;;;;;;;4217884;33;20128;-68
2022/07/31 01:45:05;;;;;;;12.65;8.93;;;;;;;;;;4217809;34;20140;-68
2022/07/31 01:47:32;;;;;;;18.33;10.43;;;;;;;;;;4218007;33;20155;-68
2022/07/31 01:49:59;;;;;;;13.65;9.25;;;;;;;;;;4207021;34;20113;-68
2022/07/31 01:52:26;;;;;;;16.67;10.38;;;;;;;;;;4220025;33;20098;-68
2022/07/31 01:54:52;;;;;;;15.05;10.38;;;;;;;;;;4207198;34;20232;-68
2022/07/31 01:57:21;;;;;;;14.57;10.00;;;;;;;;;;4207048;33;20541;-68
2022/07/31 01:59:48;;;;;;;11.45;9.30;;;;;;;;;;4206776;34;20196;-68
2022/07/31 02:02:15;;;;;;;16.10;10.02;;;;;;;;;;4207163;34;20129;-68
2022/07/31 02:04:41;;;;;;;14.82;9.80;;;;;;;;;;4206756;34;20544;-68
2022/07/31 02:07:08;;;;;;;12.88;9.73;;;;;;;;;;4206953;34;20205;-68
2022/07/31 02:09:35;;;;;;;14.30;9.77;;;;;;;;;;4221512;33;20548;-68
2022/07/31 02:12:02;;;;;;;14.23;9.60;;;;;;;;;;4220745;33;20113;-68
2022/07/31 02:14:28;;;;;;;15.65;9.73;;;;;;;;;;4232352;33;20124;-68
2022/07/31 02:16:55;;;;;;;15.77;10.35;;;;;;;;;;4221017;33;20132;-68
2022/07/31 02:19:21;;;;;;;14.75;9.55;;;;;;;;;;4232208;33;20112;-68
2022/07/31 02:21:48;;;;;;;21.92;9.90;;;;;;;;;;4232568;33;20137;-68
2022/07/31 02:24:14;;;;;;;14.90;10.15;;;;;;;;;;4233489;33;20212;-68
2022/07/31 02:26:40;;;;;;;15.32;9.73;;;;;;;;;;4232587;33;20125;-68
2022/07/31 02:29:07;;;;;;;17.85;10.90;;;;;;;;;;4232266;33;20527;-68
2022/07/31 02:31:34;;;;;;;12.10;8.88;;;;;;;;;;4233929;33;20108;-68
2022/07/31 02:34:00;;;;;;;15.00;10.05;;;;;;;;;;4232038;33;20097;-68
2022/07/31 02:36:27;;;;;;;21.05;10.75;;;;;;;;;;4232128;33;20537;-68
2022/07/31 02:38:54;;;;;;;16.73;9.80;;;;;;;;;;4233713;33;20122;-68
2022/07/31 02:41:20;;;;;;;19.92;9.90;;;;;;;;;;4233766;33;20108;-68
2022/07/31 02:43:47;;;;;;;22.62;12.05;;;;;;;;;;4233530;33;20231;-68
2022/07/31 02:46:13;;;;;;;21.55;10.45;;;;;;;;;;4233712;33;20143;-68
2022/07/31 02:48:39;;;;;;;31.42;11.60;;;;;;;;;;4233403;33;20567;-68
2022/07/31 02:51:05;;;;;;;14.73;10.25;;;;;;;;;;4220518;33;20089;-68
2022/07/31 02:53:32;;;;;;;16.35;10.55;;;;;;;;;;4233688;33;20182;-68
2022/07/31 02:56:03;;;;;;;17.70;10.73;;;;;;;;;;4233289;33;20513;-68
2022/07/31 02:58:28;;;;;;;17.30;11.15;;;;;;;;;;4231786;33;20125;-68
2022/07/31 03:01:03;;;;;;;23.50;11.25;;;;;;;;;;4232452;33;20124;-68
2022/07/31 03:03:29;;;;;;;21.00;11.03;;;;;;;;;;4233274;33;20113;-68
2022/07/31 03:05:55;;;;;;;23.10;11.25;;;;;;;;;;4233184;33;20192;-68
2022/07/31 03:08:21;;;;;;;17.08;11.05;;;;;;;;;;4233191;33;20112;-68
2022/07/31 03:10:47;;;;;;;18.30;10.20;;;;;;;;;;4233314;33;20093;-68
2022/07/31 03:13:14;;;;;;;17.40;11.18;;;;;;;;;;4233065;33;20105;-67
2022/07/31 03:15:40;;;;;;;20.20;11.68;;;;;;;;;;4220545;33;20109;-68
2022/07/31 03:18:10;;;;;;;21.08;12.10;;;;;;;;;;4208642;33;20112;-68
2022/07/31 03:20:36;;;;;;;17.08;11.73;;;;;;;;;;4220356;33;20117;-68
2022/07/31 03:23:03;;;;;;;23.08;12.70;;;;;;;;;;4232993;33;20120;-68
2022/07/31 03:25:30;;;;;;;21.85;12.82;;;;;;;;;;4233414;33;20120;-68
2022/07/31 03:27:56;;;;;;;21.70;13.05;;;;;;;;;;4231644;33;20534;-68
2022/07/31 03:30:25;;;;;;;25.45;14.13;;;;;;;;;;4232196;33;20096;-68
2022/07/31 03:32:54;;;;;;;29.52;15.48;;;;;;;;;;4232713;33;20149;-68
2022/07/31 03:35:22;;;;;;;27.35;15.60;;;;;;;;;;4233070;33;20441;-68
2022/07/31 03:37:48;;;;;;;28.33;16.58;;;;;;;;;;4232888;33;20122;-67
2022/07/31 03:40:14;;;;;;;33.05;14.55;;;;;;;;;;4232912;33;20535;-68
2022/07/31 03:42:40;;;;;;;27.70;14.38;;;;;;;;;;4233019;33;20098;-68
2022/07/31 03:45:07;;;;;;;19.92;13.20;;;;;;;;;;4231567;33;20524;-68
2022/07/31 03:47:33;;;;;;;25.80;13.40;;;;;;;;;;4232867;33;20137;-68
2022/07/31 03:49:59;;;;;;;27.55;14.68;;;;;;;;;;4233104;33;20103;-68
2022/07/31 03:52:26;;;;;;;31.17;15.15;;;;;;;;;;4219742;33;20520;-68
2022/07/31 03:54:52;;;;;;;21.33;13.62;;;;;;;;;;4232831;33;20207;-68
2022/07/31 03:57:19;;;;;;;24.87;14.93;;;;;;;;;;4232932;33;20210;-68
2022/07/31 03:59:45;;;;;;;24.48;14.45;;;;;;;;;;4231600;33;20904;-68
2022/07/31 04:02:12;;;;;;;25.73;15.65;;;;;;;;;;4231616;33;20508;-68
2022/07/31 04:04:38;;;;;;;26.23;16.65;;;;;;;;;;4232698;33;20521;-68
2022/07/31 04:07:04;;;;;;;23.27;15.52;;;;;;;;;;4232828;33;20117;-68
2022/07/31 04:09:31;;;;;;;27.52;15.65;;;;;;;;;;4232737;33;20097;-68
2022/07/31 04:11:57;;;;;;;29.55;17.20;;;;;;;;;;4232537;33;20105;-68
2022/07/31 04:14:23;;;;;;;28.70;16.30;;;;;;;;;;4232717;33;20123;-68
2022/07/31 04:16:49;;;;;;;32.85;17.73;;;;;;;;;;4232792;33;20136;-68
2022/07/31 04:19:14;;;;;;;29.85;16.98;;;;;;;;;;4232629;33;20200;-68
2022/07/31 04:21:40;;;;;;;36.90;17.17;;;;;;;;;;4232746;33;20204;-68
2022/07/31 04:24:07;;;;;;;24.87;16.65;;;;;;;;;;4232731;33;20196;-68
2022/07/31 04:26:33;;;;;;;33.25;17.10;;;;;;;;;;4232672;33;20185;-68
2022/07/31 04:28:59;;;;;;;29.52;18.50;;;;;;;;;;4232350;33;20193;-68
2022/07/31 04:31:26;;;;;;;37.90;21.62;;;;;;;;;;4232556;33;20097;-68
2022/07/31 04:33:51;;;;;;;31.33;18.62;;;;;;;;;;4232689;33;20093;-68
2022/07/31 04:36:17;;;;;;;30.67;15.75;;;;;;;;;;4219408;33;20183;-68
2022/07/31 04:38:43;;;;;;;23.90;16.30;;;;;;;;;;4232255;33;20136;-68
2022/07/31 04:41:09;;;;;;;17.10;11.93;;;;;;;;;;4232453;33;20533;-68
2022/07/31 04:43:35;;;;;;;16.77;12.02;;;;;;;;;;4230896;33;20139;-68
2022/07/31 04:46:01;;;;;;;16.02;11.68;;;;;;;;;;4232718;33;20125;-68
2022/07/31 04:48:27;;;;;;;13.57;9.48;;;;;;;;;;4232651;33;20581;-68
2022/07/31 04:50:53;;;;;;;15.80;9.93;;;;;;;;;;4232621;33;20177;-68
2022/07/31 04:53:19;;;;;;;12.40;8.60;;;;;;;;;;4219146;33;20228;-68
2022/07/31 04:56:32;;;;;;;14.48;9.43;;;;;;;;;;4232358;33;20115;-68
2022/07/31 04:58:33;;;;;;;16.33;9.38;;;;;;;;;;4232132;33;20110;-68
2022/07/31 05:01:01;;;;;;;11.45;8.45;;;;;;;;;;4232280;33;20085;-68
2022/07/31 05:03:27;;;;;;;13.35;8.25;;;;;;;;;;4232033;33;20144;-68
2022/07/31 05:05:52;;;;;;;12.77;9.07;;;;;;;;;;4232516;33;20586;-68
2022/07/31 05:08:18;;;;;;;10.32;8.77;;;;;;;;;;4232451;33;20197;-68
2022/07/31 05:13:29;;;;;;;8.60;7.37;;;;;;;;;;4232236;33;20408;-68
2022/07/31 05:15:55;;;;;;;11.50;8.82;;;;;;;;;;4232183;33;20125;-68
2022/07/31 05:18:21;;;;;;;19.27;8.93;;;;;;;;;;4232246;33;20513;-68
2022/07/31 05:20:47;;;;;;;13.18;9.60;;;;;;;;;;4232135;33;20184;-68
2022/07/31 05:23:14;;;;;;;10.70;9.10;;;;;;;;;;4233140;33;20115;-68
2022/07/31 05:25:40;;;;;;;14.05;9.60;;;;;;;;;;4234161;33;20105;-68
2022/07/31 05:28:06;;;;;;;10.05;8.50;;;;;;;;;;4234157;33;20962;-68
2022/07/31 05:30:32;;;;;;;8.73;7.82;;;;;;;;;;4233980;33;20216;-68
2022/07/31 05:32:58;;;;;;;13.25;8.38;;;;;;;;;;4233851;33;20128;-68
2022/07/31 05:35:25;;;;;;;13.57;8.15;;;;;;;;;;4221067;33;20431;-68
2022/07/31 05:37:51;;;;;;;7.25;5.15;;;;;;;;;;4233970;33;20309;-68
2022/07/31 05:40:16;;;;;;;8.57;6.65;;;;;;;;;;4233901;33;20132;-68
2022/07/31 05:42:43;;;;;;;10.38;8.40;;;;;;;;;;4234221;33;20600;-68
2022/07/31 05:45:10;;;;;;;14.18;9.50;;;;;;;;;;4232873;33;20165;-68
2022/07/31 05:47:35;;;;;;;11.25;8.93;;;;;;;;;;4233968;33;20189;-68
2022/07/31 05:50:03;;;;;;;10.27;8.15;;;;;;;;;;4234040;33;20121;-68
2022/07/31 05:52:29;;;;;;;10.88;7.95;;;;;;;;;;4233716;33;20101;-68
2022/07/31 05:54:55;;;;;;;11.25;7.50;;;;;;;;;;4233868;33;20155;-68
2022/07/31 05:57:22;;;;;;;9.38;6.97;;;;;;;;;;4233765;33;20093;-68
2022/07/31 05:59:48;;;;;;;9.63;7.35;;;;;;;;;;4234036;33;20124;-68
2022/07/31 06:02:14;;;;;;;7.25;5.22;;;;;;;;;;4232103;33;20101;-68
2022/07/31 06:04:40;;;;;;;11.25;8.60;;;;;;;;;;4233912;33;20113;-68
2022/07/31 06:07:06;;;;;;;10.55;7.18;;;;;;;;;;4234171;33;20093;-68
2022/07/31 06:09:32;;;;;;;11.32;8.50;;;;;;;;;;4233919;33;20129;-67
2022/07/31 06:11:58;;;;;;;11.50;8.13;;;;;;;;;;4234341;33;20112;-67
2022/07/31 06:14:24;;;;;;;12.60;7.50;;;;;;;;;;4233718;33;20227;-67
2022/07/31 06:16:51;;;;;;;10.25;7.35;;;;;;;;;;4234001;33;20108;-68
2022/07/31 06:19:19;;;;;;;12.82;8.65;;;;;;;;;;4233462;33;20105;-68
2022/07/31 06:21:45;;;;;;;14.38;9.45;;;;;;;;;;4232272;33;20997;-68
2022/07/31 06:24:11;;;;;;;11.82;8.57;;;;;;;;;;4233523;33;20529;-68
2022/07/31 06:26:37;;;;;;;12.10;8.48;;;;;;;;;;4233715;33;20116;-67
2022/07/31 06:29:04;;;;;;;9.25;6.50;;;;;;;;;;4232048;33;20584;-68
2022/07/31 06:31:30;;;;;;;12.18;6.82;;;;;;;;;;4233834;33;20117;-68
2022/07/31 06:33:56;;;;;;;10.02;7.47;;;;;;;;;;4233455;33;20129;-68
2022/07/31 06:36:22;;;;;;;11.00;8.23;;;;;;;;;;4233570;33;20526;-67
2022/07/31 06:38:48;;;;;;;14.90;7.78;;;;;;;;;;4233143;33;20512;-68
2022/07/31 06:41:43;;;;;;;10.68;8.35;;;;;;;;;;4233522;33;20124;-67
2022/07/31 06:43:59;;;;;;;11.12;6.22;;;;;;;;;;4233500;33;20216;-68
2022/07/31 06:46:25;;;;;;;8.27;7.37;;;;;;;;;;4233421;33;20204;-68
2022/07/31 06:48:51;;;;;;;6.95;5.97;;;;;;;;;;4233478;33;20124;-68
2022/07/31 06:51:17;;;;;;;9.25;6.75;;;;;;;;;;4233470;33;20112;-68
2022/07/31 06:53:43;;;;;;;10.93;8.60;;;;;;;;;;4233513;33;20561;-68
2022/07/31 06:56:09;;;;;;;10.27;7.80;;;;;;;;;;4220367;33;20101;-68
2022/07/31 06:58:35;;;;;;;11.18;8.13;;;;;;;;;;4233328;33;20109;-68
2022/07/31 07:01:01;;;;;;;8.52;5.75;;;;;;;;;;4233288;33;20539;-68
2022/07/31 07:03:27;;;;;;;16.85;9.38;;;;;;;;;;4233525;33;20530;-67
2022/07/31 07:05:53;;;;;;;8.88;7.15;;;;;;;;;;4233584;33;20448;-68
2022/07/31 07:08:19;;;;;;;8.70;6.30;;;;;;;;;;4220266;33;20112;-67
2022/07/31 07:10:45;;;;;;;11.07;7.80;;;;;;;;;;4233270;33;20117;-68
2022/07/31 07:13:11;;;;;;;11.90;7.82;;;;;;;;;;4233445;33;20461;-68
2022/07/31 07:15:37;;;;;;;12.27;7.57;;;;;;;;;;4233216;33;20113;-68
2022/07/31 07:18:03;;;;;;;7.90;6.57;;;;;;;;;;4233085;33;20129;-68
2022/07/31 07:20:29;;;;;;;12.30;7.18;;;;;;;;;;4232991;33;20111;-67
2022/07/31 07:22:55;;;;;;;8.35;5.12;;;;;;;;;;4233391;33;20121;-67
2022/07/31 07:25:21;;;;;;;7.03;5.45;;;;;;;;;;4233316;33;20102;-68
2022/07/31 07:27:47;;;;;;;9.65;6.80;;;;;;;;;;4233258;33;20101;-68
2022/07/31 07:30:13;;;;;;;9.07;6.72;;;;;;;;;;4232948;33;20105;-68
2022/07/31 07:32:40;;;;;;;11.07;7.25;;;;;;;;;;4233156;33;20514;-68
2022/07/31 07:35:08;;;;;;;8.38;5.50;;;;;;;;;;4233044;33;20089;-68
2022/07/31 07:37:34;;;;;;;9.02;7.45;;;;;;;;;;4232931;33;20184;-68
2022/07/31 07:40:00;;;;;;;9.10;7.75;;;;;;;;;;4233064;33;20113;-67
2022/07/31 07:42:26;;;;;;;17.83;7.43;;;;;;;;;;4233078;33;20188;-68
2022/07/31 07:44:51;;;;;;;9.40;7.20;;;;;;;;;;4232853;33;20213;-68
2022/07/31 07:47:17;;;;;;;8.25;5.90;;;;;;;;;;4232340;33;20305;-67
2022/07/31 07:49:44;;;;;;;10.85;7.55;;;;;;;;;;4232958;33;20129;-68
2022/07/31 07:52:10;;;;;;;11.68;6.80;;;;;;;;;;4233138;33;20128;-68
2022/07/31 07:54:36;;;;;;;10.35;7.12;;;;;;;;;;4232812;33;20685;-67
2022/07/31 07:57:02;;;;;;;10.00;8.32;;;;;;;;;;4232843;33;20097;-68
2022/07/31 07:59:29;;;;;;;14.68;7.53;;;;;;;;;;4219912;33;20204;-67
2022/07/31 08:01:55;;;;;;;14.93;9.00;;;;;;;;;;4219133;33;20212;-67
2022/07/31 08:04:21;;;;;;;10.77;8.05;;;;;;;;;;4231901;33;20117;-67
2022/07/31 08:06:47;;;;;;;10.80;8.85;;;;;;;;;;4232666;33;20199;-67
2022/07/31 08:09:13;;;;;;;10.38;8.15;;;;;;;;;;4232717;33;20109;-68
2022/07/31 08:11:39;;;;;;;9.27;8.15;;;;;;;;;;4220061;33;20104;-67
2022/07/31 08:14:05;;;;;;;12.37;7.18;;;;;;;;;;4232956;33;20120;-67
2022/07/31 08:16:31;;;;;;;12.32;7.28;;;;;;;;;;4232684;33;20113;-68
2022/07/31 08:18:57;;;;;;;8.85;7.45;;;;;;;;;;4232543;33;20196;-67
2022/07/31 08:21:23;;;;;;;8.68;7.22;;;;;;;;;;4232605;33;20189;-67
2022/07/31 08:23:51;;;;;;;10.45;7.30;;;;;;;;;;4232674;33;20465;-67
2022/07/31 08:26:17;;;;;;;9.57;7.65;;;;;;;;;;4232539;33;20148;-67
2022/07/31 08:28:43;;;;;;;9.52;7.53;;;;;;;;;;4232616;33;20093;-67
2022/07/31 08:31:10;;;;;;;11.18;8.95;;;;;;;;;;4232795;33;20525;-67
2022/07/31 08:33:36;;;;;;;8.48;6.32;;;;;;;;;;4232442;33;20180;-67
2022/07/31 08:36:03;;;;;;;8.52;7.12;;;;;;;;;;4232523;33;20549;-66
2022/07/31 08:38:29;;;;;;;8.30;6.70;;;;;;;;;;4232400;33;20212;-67
2022/07/31 08:40:55;;;;;;;10.00;7.75;;;;;;;;;;4232472;33;20135;-67
2022/07/31 08:43:21;;;;;;;9.32;7.43;;;;;;;;;;4219210;33;20195;-67
2022/07/31 08:45:48;;;;;;;11.12;8.05;;;;;;;;;;4219354;33;20117;-67
2022/07/31 08:48:15;;;;;;;11.90;7.93;;;;;;;;;;4232241;33;20121;-67
2022/07/31 08:50:43;;;;;;;12.88;7.95;;;;;;;;;;4232481;33;20133;-67
2022/07/31 08:53:12;;;;;;;14.57;7.72;;;;;;;;;;4219327;33;20117;-67
2022/07/31 08:55:38;;;;;;;10.15;6.90;;;;;;;;;;4232377;33;20086;-68
2022/07/31 08:58:04;;;;;;;9.55;7.15;;;;;;;;;;4231287;33;20256;-68
2022/07/31 09:00:32;;;;;;;12.32;6.35;;;;;;;;;;4232249;33;20124;-67
2022/07/31 09:02:58;;;;;;;8.32;6.90;;;;;;;;;;4232130;33;20125;-67
2022/07/31 09:05:24;;;;;;;12.68;6.00;;;;;;;;;;4232484;33;20116;-67
2022/07/31 09:07:50;;;;;;;8.23;6.95;;;;;;;;;;4232005;33;20120;-67
2022/07/31 09:10:25;;;;;;;9.50;7.93;;;;;;;;;;4232223;33;20208;-67
2022/07/31 09:12:52;;;;;;;;;;;;;;;;;;4232443;33;20187;-67
2022/07/31 09:15:26;;;;;;;9.77;6.80;;;;;;;;;;4232235;33;19981;-68
2022/07/31 09:17:53;;;;;;;11.00;6.78;;;;;;;;;;4219060;33;20552;-67
2022/07/31 09:20:21;;;;;;;8.50;7.40;;;;;;;;;;4232019;33;20262;-67
2022/07/31 09:22:47;;;;;;;10.80;7.55;;;;;;;;;;4231867;33;20121;-68
2022/07/31 09:25:17;;;;;;;15.82;7.62;;;;;;;;;;4219310;33;20116;-67
2022/07/31 09:27:44;;;;;;;11.40;7.57;;;;;;;;;;4231861;33;20122;-67
2022/07/31 09:30:11;;;;;;;3.45;2.47;;;;;;;;;;4230892;33;20121;-69
2022/07/31 09:32:37;;;;;;;10.23;6.95;;;;;;;;;;4217372;33;20119;-70
2022/07/31 09:35:11;;;;;;;8.82;6.87;;;;;;;;;;4231363;33;20137;-67
2022/07/31 09:37:38;;;;;;;2.72;2.53;;;;;;;;;;4229745;33;20116;-67
2022/07/31 09:40:05;;;;;;;13.73;6.62;;;;;;;;;;4230395;33;20093;-68
2022/07/31 09:42:43;;;;;;;12.95;7.10;;;;;;;;;;4230090;33;20121;-67
2022/07/31 09:45:17;;;;;;;8.20;5.87;;;;;;;;;;4218847;33;20442;-68
2022/07/31 09:47:43;;;;;;;7.57;5.18;;;;;;;;;;4231725;33;20136;-68
2022/07/31 09:50:09;;;;;;;7.45;5.53;;;;;;;;;;4231758;33;20315;-71
2022/07/31 09:52:35;;;;;;;9.02;6.10;;;;;;;;;;4231700;33;20090;-66
2022/07/31 09:55:11;;;;;;;7.45;5.05;;;;;;;;;;4232029;33;20465;-67
2022/07/31 09:57:38;;;;;;;7.10;5.22;;;;;;;;;;4218854;33;20216;-68
2022/07/31 10:00:08;;;;;;;9.75;5.25;;;;;;;;;;4231663;33;20109;-67
2022/07/31 10:02:35;;;;;;;10.27;5.62;;;;;;;;;;4231544;33;20123;-67
2022/07/31 10:05:01;;;;;;;9.90;5.80;;;;;;;;;;4218825;33;20120;-66
2022/07/31 10:07:28;;;;;;;9.43;6.37;;;;;;;;;;4218454;33;20120;-67
2022/07/31 10:09:55;;;;;;;8.73;5.87;;;;;;;;;;4208863;33;20115;-67
2022/07/31 10:12:22;;;;;;;10.35;5.53;;;;;;;;;;4233567;33;20117;-67
2022/07/31 10:14:50;;;;;;;12.52;6.47;;;;;;;;;;4221061;33;20094;-66
2022/07/31 10:17:26;;;;;;;8.13;5.68;;;;;;;;;;4233547;33;20115;-67
2022/07/31 10:19:57;;;;;;;6.95;5.47;;;;;;;;;;4219773;33;20109;-67
2022/07/31 10:22:24;;;;;;;7.40;5.70;;;;;;;;;;4232881;33;20101;-66
2022/07/31 10:24:51;;;;;;;7.62;5.40;;;;;;;;;;4220850;33;20129;-66
2022/07/31 10:27:18;;;;;;;7.03;5.65;;;;;;;;;;4207891;33;20101;-69
2022/07/31 10:29:44;;;;;;;10.13;5.57;;;;;;;;;;4230294;33;20116;-68
2022/07/31 10:32:10;;;;;;;9.57;6.82;;;;;;;;;;4217486;33;20128;-67
2022/07/31 10:34:37;;;;;;;8.68;6.03;;;;;;;;;;4228294;33;20116;-68
2022/07/31 10:37:09;;;;;;;14.48;6.12;;;;;;;;;;4218702;33;20521;-66
2022/07/31 10:39:43;;;;;;;10.93;6.05;;;;;;;;;;4208746;33;20148;-67
2022/07/31 10:42:28;;;;;;;7.00;5.50;;;;;;;;;;4220761;33;20104;-67
2022/07/31 10:45:06;;;;;;;8.13;5.43;;;;;;;;;;4213240;33;20090;-67
2022/07/31 10:47:32;;;;;;;9.68;6.05;;;;;;;;;;4233306;33;20168;-67
2022/07/31 10:49:58;;;;;;;6.60;5.90;;;;;;;;;;4233481;33;20147;-67
2022/07/31 10:52:33;;;;;;;7.80;5.70;;;;;;;;;;4231750;33;20714;-67
2022/07/31 10:55:00;;;;;;;8.18;5.90;;;;;;;;;;4218819;33;20108;-67
2022/07/31 10:57:33;;;;;;;8.55;6.32;;;;;;;;;;4232012;33;20216;-67
2022/07/31 11:00:16;;;;;;;10.43;5.82;;;;;;;;;;4230640;33;20185;-67
2022/07/31 11:02:42;;;;;;;7.12;5.12;;;;;;;;;;4231947;33;20110;-67
2022/07/31 11:05:14;;;;;;;6.93;5.07;;;;;;;;;;4232382;33;20106;-67
2022/07/31 11:07:41;;;;;;;8.90;5.53;;;;;;;;;;4230769;33;20465;-67
2022/07/31 11:10:12;;;;;;;7.60;4.93;;;;;;;;;;4232622;33;20135;-67
2022/07/31 11:12:38;;;;;;;5.45;4.93;;;;;;;;;;4224317;33;20141;-67
2022/07/31 11:15:19;;;;;;;6.75;4.97;;;;;;;;;;4225850;33;20236;-67
2022/07/31 11:17:45;;;;;;;6.75;4.87;;;;;;;;;;4211369;33;20201;-67
2022/07/31 11:20:23;;;;;;;9.65;5.10;;;;;;;;;;4224338;33;20212;-67
2022/07/31 11:23:16;;;;;;;6.80;5.50;;;;;;;;;;4224874;33;20165;-66
2022/07/31 11:25:47;;;;;;;11.12;5.75;;;;;;;;;;4211562;33;20487;-66
2022/07/31 11:28:22;;;;;;;8.40;5.32;;;;;;;;;;4224285;33;20134;-67
2022/07/31 11:31:01;;;;;;;7.78;5.70;;;;;;;;;;4224339;33;20216;-67
2022/07/31 11:33:34;;;;;;;7.37;5.07;;;;;;;;;;4224180;33;20105;-67
2022/07/31 11:36:18;;;;;;;13.45;5.57;;;;;;;;;;4224913;33;20506;-67
2022/07/31 11:38:48;;;;;;;6.90;4.78;;;;;;;;;;4212977;33;20094;-67
2022/07/31 11:41:14;;;;;;;6.78;5.20;;;;;;;;;;4231744;33;20098;-67
2022/07/31 11:43:49;;;;;;;8.85;5.72;;;;;;;;;;4232588;33;20116;-67
2022/07/31 11:46:23;;;;;;;7.90;5.35;;;;;;;;;;4232582;33;20212;-67
2022/07/31 11:48:49;;;;;;;7.53;5.25;;;;;;;;;;4232749;33;20121;-66
2022/07/31 11:51:17;;;;;;;8.20;4.90;;;;;;;;;;4232874;33;20117;-66
2022/07/31 11:53:43;;;;;;;7.60;5.68;;;;;;;;;;4232917;33;20099;-66
2022/07/31 11:56:09;;;;;;;7.18;5.70;;;;;;;;;;4232768;33;20097;-66
2022/07/31 11:58:36;;;;;;;5.78;4.47;;;;;;;;;;4231982;33;20089;-67
2022/07/31 12:01:03;;;;;;;7.30;5.35;;;;;;;;;;4231808;33;20536;-67
2022/07/31 12:03:32;;;;;;;8.60;5.07;;;;;;;;;;4231632;33;20216;-66
2022/07/31 12:05:59;;;;;;;6.03;5.12;;;;;;;;;;4231604;33;20201;-66
2022/07/31 12:08:26;;;;;;;10.05;5.35;;;;;;;;;;4231271;33;20121;-65
2022/07/31 12:10:56;;;;;;;8.73;6.12;;;;;;;;;;4232345;33;20499;-65
2022/07/31 12:13:24;;;;;;;6.93;4.82;;;;;;;;;;4232455;33;20537;-66
2022/07/31 12:15:58;;;;;;;6.65;5.55;;;;;;;;;;4231441;33;20120;-66
2022/07/31 12:18:25;;;;;;;6.97;5.68;;;;;;;;;;4232596;33;20093;-66
2022/07/31 12:21:02;;;;;;;6.40;5.28;;;;;;;;;;4232588;33;20121;-66
2022/07/31 12:23:45;;;;;;;9.82;5.25;;;;;;;;;;4232661;33;20129;-66
2022/07/31 12:26:13;;;;;;;5.72;4.82;;;;;;;;;;4226779;33;20090;-66
2022/07/31 12:28:39;;;;;;;10.18;5.20;;;;;;;;;;4219276;33;20192;-66
2022/07/31 12:31:05;;;;;;;7.55;5.10;;;;;;;;;;4232478;33;20172;-66
2022/07/31 12:33:42;;;;;;;8.05;5.57;;;;;;;;;;4231844;33;20132;-66
2022/07/31 12:36:13;;;;;;;5.65;4.90;;;;;;;;;;4232411;33;20108;-66
2022/07/31 12:38:39;;;;;;;6.70;5.18;;;;;;;;;;4232312;33;20177;-65
2022/07/31 12:41:05;;;;;;;7.03;5.20;;;;;;;;;;4232637;33;20203;-65
2022/07/31 12:43:31;;;;;;;6.30;4.72;;;;;;;;;;4232341;33;20489;-66
2022/07/31 12:46:01;;;;;;;8.15;4.85;;;;;;;;;;4232396;33;20109;-64
2022/07/31 12:48:27;;;;;;;8.77;5.53;;;;;;;;;;4232358;33;20127;-64
2022/07/31 12:50:53;;;;;;;6.55;5.07;;;;;;;;;;4232612;33;20140;-65
2022/07/31 12:53:20;;;;;;;7.60;5.40;;;;;;;;;;4232254;33;20541;-65
2022/07/31 12:55:46;;;;;;;7.12;4.93;;;;;;;;;;4232356;33;20128;-65
2022/07/31 12:58:12;;;;;;;6.07;5.20;;;;;;;;;;4231445;33;20121;-65
2022/07/31 13:00:38;;;;;;;9.57;5.62;;;;;;;;;;4231721;33;20146;-65
2022/07/31 13:03:03;;;;;;;9.27;5.40;;;;;;;;;;4232293;33;20204;-66
2022/07/31 13:05:30;;;;;;;9.10;5.07;;;;;;;;;;4230824;33;20231;-66
2022/07/31 13:07:56;;;;;;;7.85;5.25;;;;;;;;;;4232117;33;20119;-65
2022/07/31 13:10:22;;;;;;;7.45;5.37;;;;;;;;;;4232317;33;20101;-69
2022/07/31 13:12:49;;;;;;;9.18;5.32;;;;;;;;;;4231918;33;20518;-66
2022/07/31 13:15:17;;;;;;;9.82;6.35;;;;;;;;;;4218866;33;20807;-71
2022/07/31 13:17:43;;;;;;;10.18;5.43;;;;;;;;;;4206927;33;20112;-72
2022/07/31 13:20:10;;;;;;;7.18;4.72;;;;;;;;;;4229026;33;20140;-73
2022/07/31 13:22:36;;;;;;;8.35;5.28;;;;;;;;;;4231305;33;20120;-73
2022/07/31 13:25:04;;;;;;;8.15;4.55;;;;;;;;;;4230593;33;20179;-72
2022/07/31 13:27:30;;;;;;;7.47;4.95;;;;;;;;;;4219062;33;20220;-74
2022/07/31 13:29:57;;;;;;;6.45;5.10;;;;;;;;;;4231884;33;20474;-73
2022/07/31 13:32:24;;;;;;;6.53;5.00;;;;;;;;;;4230389;33;20253;-71
2022/07/31 13:34:51;;;;;;;5.45;4.43;;;;;;;;;;4230700;33;20807;-73
2022/07/31 13:37:17;;;;;;;8.02;4.28;;;;;;;;;;4231816;33;20108;-70
2022/07/31 13:39:43;;;;;;;8.02;4.35;;;;;;;;;;4231861;33;20120;-72
2022/07/31 13:42:09;;;;;;;5.62;4.53;;;;;;;;;;4231905;33;20537;-70
2022/07/31 13:44:35;;;;;;;8.18;4.40;;;;;;;;;;4233532;33;20195;-72
2022/07/31 13:47:01;;;;;;;9.35;5.07;;;;;;;;;;4232826;33;20117;-74
2022/07/31 13:49:30;;;;;;;7.18;4.87;;;;;;;;;;4234022;33;20136;-72
2022/07/31 13:51:58;;;;;;;6.10;4.57;;;;;;;;;;4234043;33;20192;-72
2022/07/31 13:54:25;;;;;;;5.57;4.43;;;;;;;;;;4220936;33;20111;-72
2022/07/31 13:56:52;;;;;;;8.95;5.07;;;;;;;;;;4209483;33;20128;-71
2022/07/31 13:59:19;;;;;;;9.32;4.40;;;;;;;;;;4220687;33;20457;-72
2022/07/31 14:01:49;;;;;;;12.40;5.70;;;;;;;;;;4233930;33;20450;-72
2022/07/31 14:04:18;;;;;;;8.23;3.90;;;;;;;;;;4233769;33;20453;-72
2022/07/31 14:06:45;;;;;;;6.57;4.40;;;;;;;;;;4233827;33;20496;-71
2022/07/31 14:09:11;;;;;;;7.65;3.58;;;;;;;;;;4233578;33;20108;-71
2022/07/31 14:11:37;;;;;;;6.00;4.37;;;;;;;;;;4209341;33;20152;-73
2022/07/31 14:14:03;;;;;;;5.45;4.62;;;;;;;;;;4234010;33;20126;-72
2022/07/31 14:16:29;;;;;;;7.28;4.68;;;;;;;;;;4233691;33;20120;-72
2022/07/31 14:18:55;;;;;;;4.78;3.92;;;;;;;;;;4220656;33;20556;-73
2022/07/31 14:21:21;;;;;;;7.80;4.80;;;;;;;;;;4233767;33;20125;-73
2022/07/31 14:23:48;;;;;;;7.97;4.43;;;;;;;;;;4233592;33;20136;-71
2022/07/31 14:26:14;;;;;;;6.50;4.82;;;;;;;;;;4233555;33;20207;-72
2022/07/31 14:28:40;;;;;;;12.52;4.47;;;;;;;;;;4233521;33;20132;-71
2022/07/31 14:31:06;;;;;;;11.02;4.97;;;;;;;;;;4220676;33;20561;-71
2022/07/31 14:33:32;;;;;;;9.15;5.95;;;;;;;;;;4220252;33;20839;-75
2022/07/31 14:35:58;;;;;;;6.03;5.43;;;;;;;;;;4223035;33;20097;-73
2022/07/31 14:38:24;;;;;;;5.55;4.93;;;;;;;;;;4234457;33;20196;-72
2022/07/31 14:40:51;;;;;;;8.88;5.45;;;;;;;;;;4233180;33;20144;-67
2022/07/31 14:43:17;;;;;;;7.35;5.28;;;;;;;;;;4233380;33;20125;-66
2022/07/31 14:45:43;;;;;;;10.73;4.57;;;;;;;;;;4233429;33;20608;-66
2022/07/31 14:48:09;;;;;;;6.47;4.72;;;;;;;;;;4233425;33;20801;-67
2022/07/31 14:50:38;;;;;;;10.75;5.70;;;;;;;;;;4233336;33;20506;-65
2022/07/31 14:53:08;;;;;;;19.12;6.72;;;;;;;;;;4199881;34;20106;-64
2022/07/31 14:55:34;;;;;;;10.40;6.03;;;;;;;;;;4226656;33;20184;-67
2022/07/31 14:58:00;;;;;;;9.60;6.60;;;;;;;;;;4233317;33;20113;-67
2022/07/31 15:00:26;;;;;;;10.93;6.12;;;;;;;;;;4232741;33;20560;-65
2022/07/31 15:02:52;;;;;;;12.77;6.35;;;;;;;;;;4220010;33;20204;-65
2022/07/31 15:05:18;;;;;;;10.60;5.80;;;;;;;;;;4207994;33;20118;-65
2022/07/31 15:07:44;;;;;;;13.70;8.10;;;;;;;;;;4228133;33;20125;-67